SondeTracker

Meteorological Radiosondes Database

Operations

Sounding was ended - last measurement: 2022-12-06 01:39:46z

MAP
About Radiosonde

Number: D22042582 ([BC]22042582)

Launch Site: Greensboro [NC] (US)

Type: DFM

AUX: NO

Frequency: MHz

Max Speed: 202 km/h at 13012 m

Average Speed: 107.04 km/h

Max Altitude: 32782 m

Average Ascent Speed: 5.23 m/s

Average Descent Speed: 10.50 m/s

Status: UNKNOWN

Status Changes
Launch Site Type AUX Frequency Status Finder Landing Point Description Changes made by
APRS Statistics

Received Frames: 531

First Frame [UTC]: 2022-12-05 23:06:54z

Last Frame [UTC]: 2022-12-06 01:39:46z

Receivers: W4DEX-14

Flight Time: 02:32:52 h

Distance From First Measurement: 246.16 km

Nearest City: Greenville [NC] (US) [14.25 km]

Nearest Hunter: [0.00 km]

Ground Altitude: 9 m

Distance from QTH: 0.00 km

APRS Data
Receiver Number Date/Time [UTC] φ λ Course [°] Speed [km/h] Altitude [m] Description
W4DEX-14D220425822022-12-06 01:39:4635.6823-77.260614391143Clb=-4.8m/s Type=DFM17 ser=[BC]22042582 Details on http://radiosondy.info
W4DEX-14D220425822022-12-06 01:39:3135.6809-77.261113391212Clb=-4.8m/s Type=DFM17 ser=[BC]22042582 Details on http://radiosondy.info
W4DEX-14D220425822022-12-06 01:34:5135.6605-77.276566372673Clb=-5.1m/s Type=DFM17 ser=[BC]22042582 Details on http://radiosondy.info
W4DEX-14D220425822022-12-06 01:32:3635.6587-77.291583353351Clb=-5.2m/s Type=DFM17 ser=[BC]22042582 Details on http://radiosondy.info
W4DEX-14D220425822022-12-06 01:32:1935.6584-77.293372373440Clb=-5.1m/s Type=DFM17 ser=[BC]22042582 Details on http://radiosondy.info
W4DEX-14D220425822022-12-06 01:32:0035.658-77.295377353539Clb=-5.1m/s Type=DFM17 ser=[BC]22042582 Details on http://radiosondy.info
W4DEX-14D220425822022-12-06 01:31:4535.6577-77.296884333621Clb=-4.9m/s Type=DFM17 ser=[BC]22042582 Details on http://radiosondy.info
W4DEX-14D220425822022-12-06 01:30:4635.6573-77.302796313920Clb=-5.2m/s Type=DFM17 ser=[BC]22042582 Details on http://radiosondy.info
W4DEX-14D220425822022-12-06 01:30:3135.6573-77.304189304002Clb=-5.0m/s Type=DFM17 ser=[BC]22042582 Details on http://radiosondy.info
W4DEX-14D220425822022-12-06 01:30:1635.6573-77.305594314079Clb=-5.1m/s Type=DFM17 ser=[BC]22042582 Details on http://radiosondy.info
W4DEX-14D220425822022-12-06 01:30:0135.6572-77.30780314160Clb=-5.2m/s Type=DFM17 ser=[BC]22042582 Details on http://radiosondy.info
W4DEX-14D220425822022-12-06 01:29:4635.6572-77.308481304239Clb=-5.0m/s Type=DFM17 ser=[BC]22042582 Details on http://radiosondy.info
W4DEX-14D220425822022-12-06 01:29:3235.6571-77.309892314321Clb=-5.4m/s Type=DFM17 ser=[BC]22042582 Details on http://radiosondy.info
W4DEX-14D220425822022-12-06 01:29:1635.6571-77.311298314405Clb=-5.3m/s Type=DFM17 ser=[BC]22042582 Details on http://radiosondy.info
W4DEX-14D220425822022-12-06 01:29:0135.6571-77.312793314488Clb=-5.3m/s Type=DFM17 ser=[BC]22042582 Details on http://radiosondy.info
W4DEX-14D220425822022-12-06 01:28:4635.6572-77.3141100354572Clb=-5.3m/s Type=DFM17 ser=[BC]22042582 Details on http://radiosondy.info
W4DEX-14D220425822022-12-06 01:28:3135.6574-77.3157104394651Clb=-5.1m/s Type=DFM17 ser=[BC]22042582 Details on http://radiosondy.info
W4DEX-14D220425822022-12-06 01:28:1635.6577-77.3175105444733Clb=-5.6m/s Type=DFM17 ser=[BC]22042582 Details on http://radiosondy.info
W4DEX-14D220425822022-12-06 01:28:0135.6583-77.3194112444816Clb=-5.7m/s Type=DFM17 ser=[BC]22042582 Details on http://radiosondy.info
W4DEX-14D220425822022-12-06 01:27:4635.659-77.3213122464900Clb=-5.5m/s Type=DFM17 ser=[BC]22042582 Details on http://radiosondy.info
W4DEX-14D220425822022-12-06 01:27:3135.6598-77.3231115444984Clb=-5.8m/s Type=DFM17 ser=[BC]22042582 Details on http://radiosondy.info
W4DEX-14D220425822022-12-06 01:27:1635.6606-77.3249125525067Clb=-5.6m/s Type=DFM17 ser=[BC]22042582 Details on http://radiosondy.info
W4DEX-14D220425822022-12-06 01:27:0135.6616-77.327115545151Clb=-5.6m/s Type=DFM17 ser=[BC]22042582 Details on http://radiosondy.info
W4DEX-14D220425822022-12-06 01:26:4635.6625-77.3292121545236Clb=-5.7m/s Type=DFM17 ser=[BC]22042582 Details on http://radiosondy.info
W4DEX-14D220425822022-12-06 01:26:3135.6634-77.3314113465322Clb=-5.5m/s Type=DFM17 ser=[BC]22042582 Details on http://radiosondy.info
W4DEX-14D220425822022-12-06 01:26:1635.6643-77.3332126465407Clb=-5.8m/s Type=DFM17 ser=[BC]22042582 Details on http://radiosondy.info
W4DEX-14D220425822022-12-06 01:26:0135.6653-77.335129465493Clb=-5.6m/s Type=DFM17 ser=[BC]22042582 Details on http://radiosondy.info
W4DEX-14D220425822022-12-06 01:25:4635.6664-77.3366131465579Clb=-5.6m/s Type=DFM17 ser=[BC]22042582 Details on http://radiosondy.info
W4DEX-14D220425822022-12-06 01:25:3135.6676-77.3381137485666Clb=-6.0m/s Type=DFM17 ser=[BC]22042582 Details on http://radiosondy.info
W4DEX-14D220425822022-12-06 01:25:1635.6688-77.3398133525755Clb=-6.1m/s Type=DFM17 ser=[BC]22042582 Details on http://radiosondy.info
W4DEX-14D220425822022-12-06 01:25:0135.67-77.3416126505845Clb=-5.9m/s Type=DFM17 ser=[BC]22042582 Details on http://radiosondy.info
W4DEX-14D220425822022-12-06 01:24:4635.6712-77.3434133505932Clb=-5.8m/s Type=DFM17 ser=[BC]22042582 Details on http://radiosondy.info
W4DEX-14D220425822022-12-06 01:24:3135.6724-77.3452121526022Clb=-5.8m/s Type=DFM17 ser=[BC]22042582 Details on http://radiosondy.info
W4DEX-14D220425822022-12-06 01:24:1635.6734-77.3472126526110Clb=-5.8m/s Type=DFM17 ser=[BC]22042582 Details on http://radiosondy.info
W4DEX-14D220425822022-12-06 01:24:0235.6745-77.3491131526194Clb=-5.9m/s Type=DFM17 ser=[BC]22042582 Details on http://radiosondy.info
W4DEX-14D220425822022-12-06 01:23:4235.676-77.3517120546314Clb=-5.9m/s Type=DFM17 ser=[BC]22042582 Details on http://radiosondy.info
W4DEX-14D220425822022-12-06 01:23:2735.6771-77.3537121546404Clb=-6.0m/s Type=DFM17 ser=[BC]22042582 Details on http://radiosondy.info
W4DEX-14D220425822022-12-06 01:23:1235.6783-77.3558128566495Clb=-6.2m/s Type=DFM17 ser=[BC]22042582 Details on http://radiosondy.info
W4DEX-14D220425822022-12-06 01:22:5735.6793-77.358115546588Clb=-6.4m/s Type=DFM17 ser=[BC]22042582 Details on http://radiosondy.info
W4DEX-14D220425822022-12-06 01:22:4235.6804-77.3601118596678Clb=-5.6m/s Type=DFM17 ser=[BC]22042582 Details on http://radiosondy.info
W4DEX-14D220425822022-12-06 01:22:2735.6816-77.3623120596771Clb=-6.3m/s Type=DFM17 ser=[BC]22042582 Details on http://radiosondy.info
W4DEX-14D220425822022-12-06 01:22:1235.6829-77.3646127616867Clb=-6.3m/s Type=DFM17 ser=[BC]22042582 Details on http://radiosondy.info
W4DEX-14D220425822022-12-06 01:21:5735.6843-77.3669122596964Clb=-6.4m/s Type=DFM17 ser=[BC]22042582 Details on http://radiosondy.info
W4DEX-14D220425822022-12-06 01:21:4235.6856-77.369133657056Clb=-6.0m/s Type=DFM17 ser=[BC]22042582 Details on http://radiosondy.info
W4DEX-14D220425822022-12-06 01:21:2735.687-77.3714134697148Clb=-6.0m/s Type=DFM17 ser=[BC]22042582 Details on http://radiosondy.info
W4DEX-14D220425822022-12-06 01:21:1235.6886-77.3738129747241Clb=-6.2m/s Type=DFM17 ser=[BC]22042582 Details on http://radiosondy.info
W4DEX-14D220425822022-12-06 01:20:5735.6906-77.3763134837338Clb=-6.4m/s Type=DFM17 ser=[BC]22042582 Details on http://radiosondy.info
W4DEX-14D220425822022-12-06 01:20:4235.6927-77.3791134917437Clb=-6.8m/s Type=DFM17 ser=[BC]22042582 Details on http://radiosondy.info
W4DEX-14D220425822022-12-06 01:20:2735.6949-77.38231341027535Clb=-6.6m/s Type=DFM17 ser=[BC]22042582 Details on http://radiosondy.info
W4DEX-14D220425822022-12-06 01:20:1235.6972-77.3861291067632Clb=-6.1m/s Type=DFM17 ser=[BC]22042582 Details on http://radiosondy.info
W4DEX-14D220425822022-12-06 01:19:5735.6994-77.391241077729Clb=-6.4m/s Type=DFM17 ser=[BC]22042582 Details on http://radiosondy.info
W4DEX-14D220425822022-12-06 01:19:4235.7018-77.39411241097827Clb=-6.4m/s Type=DFM17 ser=[BC]22042582 Details on http://radiosondy.info
W4DEX-14D220425822022-12-06 01:19:2735.7038-77.39841191117926Clb=-6.6m/s Type=DFM17 ser=[BC]22042582 Details on http://radiosondy.info
W4DEX-14D220425822022-12-06 01:19:1235.7057-77.40291161208024Clb=-6.3m/s Type=DFM17 ser=[BC]22042582 Details on http://radiosondy.info
W4DEX-14D220425822022-12-06 01:18:5735.7077-77.4081161308124Clb=-6.4m/s Type=DFM17 ser=[BC]22042582 Details on http://radiosondy.info
W4DEX-14D220425822022-12-06 01:18:4235.7096-77.41341121308222Clb=-6.5m/s Type=DFM17 ser=[BC]22042582 Details on http://radiosondy.info
W4DEX-14D220425822022-12-06 01:18:2735.7113-77.4191091318321Clb=-6.3m/s Type=DFM17 ser=[BC]22042582 Details on http://radiosondy.info
W4DEX-14D220425822022-12-06 01:18:1335.7129-77.42471111318419Clb=-6.5m/s Type=DFM17 ser=[BC]22042582 Details on http://radiosondy.info
W4DEX-14D220425822022-12-06 01:17:5835.7145-77.43041091438516Clb=-6.6m/s Type=DFM17 ser=[BC]22042582 Details on http://radiosondy.info
W4DEX-14D220425822022-12-06 01:17:4435.7161-77.43661091438615Clb=-6.5m/s Type=DFM17 ser=[BC]22042582 Details on http://radiosondy.info
W4DEX-14D220425822022-12-06 01:17:2735.7177-77.44281081398714Clb=-6.6m/s Type=DFM17 ser=[BC]22042582 Details on http://radiosondy.info
W4DEX-14D220425822022-12-06 01:17:1235.7193-77.44891081418812Clb=-7.0m/s Type=DFM17 ser=[BC]22042582 Details on http://radiosondy.info
W4DEX-14D220425822022-12-06 01:16:5735.7208-77.45511061468914Clb=-6.8m/s Type=DFM17 ser=[BC]22042582 Details on http://radiosondy.info
W4DEX-14D220425822022-12-06 01:16:4235.7223-77.46161071489015Clb=-6.6m/s Type=DFM17 ser=[BC]22042582 Details on http://radiosondy.info
W4DEX-14D220425822022-12-06 01:16:2735.7238-77.46821061509117Clb=-7.0m/s Type=DFM17 ser=[BC]22042582 Details on http://radiosondy.info
W4DEX-14D220425822022-12-06 01:16:1235.7251-77.47491041599219Clb=-6.8m/s Type=DFM17 ser=[BC]22042582 Details on http://radiosondy.info
W4DEX-14D220425822022-12-06 01:15:5735.7264-77.48211081599321Clb=-6.6m/s Type=DFM17 ser=[BC]22042582 Details on http://radiosondy.info
W4DEX-14D220425822022-12-06 01:15:4335.7279-77.48911081619423Clb=-7.0m/s Type=DFM17 ser=[BC]22042582 Details on http://radiosondy.info
W4DEX-14D220425822022-12-06 01:15:3035.7297-77.49621071729526Clb=-6.4m/s Type=DFM17 ser=[BC]22042582 Details on http://radiosondy.info
W4DEX-14D220425822022-12-06 01:15:1635.7319-77.50371091679630Clb=-7.2m/s Type=DFM17 ser=[BC]22042582 Details on http://radiosondy.info
W4DEX-14D220425822022-12-06 01:15:0035.7337-77.51111061729736Clb=-6.9m/s Type=DFM17 ser=[BC]22042582 Details on http://radiosondy.info
W4DEX-14D220425822022-12-06 01:14:4735.7357-77.51861091709837Clb=-6.7m/s Type=DFM17 ser=[BC]22042582 Details on http://radiosondy.info
W4DEX-14D220425822022-12-06 01:14:3235.7376-77.52611111699939Clb=-6.9m/s Type=DFM17 ser=[BC]22042582 Details on http://radiosondy.info
W4DEX-14D220425822022-12-06 01:14:1835.7396-77.533510717010044Clb=-7.0m/s Type=DFM17 ser=[BC]22042582 Details on http://radiosondy.info
W4DEX-14D220425822022-12-06 01:14:0235.7416-77.540910617010149Clb=-7.0m/s Type=DFM17 ser=[BC]22042582 Details on http://radiosondy.info
W4DEX-14D220425822022-12-06 01:13:4835.7436-77.548310717010253Clb=-6.9m/s Type=DFM17 ser=[BC]22042582 Details on http://radiosondy.info
W4DEX-14D220425822022-12-06 01:13:3235.7455-77.555811017010354Clb=-6.7m/s Type=DFM17 ser=[BC]22042582 Details on http://radiosondy.info
W4DEX-14D220425822022-12-06 01:13:1735.7474-77.563311116910456Clb=-6.6m/s Type=DFM17 ser=[BC]22042582 Details on http://radiosondy.info
W4DEX-14D220425822022-12-06 01:13:0135.7492-77.570711116710557Clb=-6.6m/s Type=DFM17 ser=[BC]22042582 Details on http://radiosondy.info
W4DEX-14D220425822022-12-06 01:12:4835.7512-77.577911016710657Clb=-6.6m/s Type=DFM17 ser=[BC]22042582 Details on http://radiosondy.info
W4DEX-14D220425822022-12-06 01:12:3135.7532-77.585211216910755Clb=-6.8m/s Type=DFM17 ser=[BC]22042582 Details on http://radiosondy.info
W4DEX-14D220425822022-12-06 01:12:1735.7554-77.592411017010854Clb=-6.5m/s Type=DFM17 ser=[BC]22042582 Details on http://radiosondy.info
W4DEX-14D220425822022-12-06 01:12:0035.7576-77.599710817010955Clb=-6.7m/s Type=DFM17 ser=[BC]22042582 Details on http://radiosondy.info
W4DEX-14D220425822022-12-06 01:11:4535.7598-77.607110717411057Clb=-6.9m/s Type=DFM17 ser=[BC]22042582 Details on http://radiosondy.info
W4DEX-14D220425822022-12-06 01:11:4335.762-77.614610917411159Clb=-6.8m/s Type=DFM17 ser=[BC]22042582 Details on http://radiosondy.info
W4DEX-14D220425822022-12-06 01:11:1635.7642-77.622111117411264Clb=-7.2m/s Type=DFM17 ser=[BC]22042582 Details on http://radiosondy.info
W4DEX-14D220425822022-12-06 01:11:0035.7663-77.629611217211368Clb=-7.0m/s Type=DFM17 ser=[BC]22042582 Details on http://radiosondy.info
W4DEX-14D220425822022-12-06 01:10:4635.7685-77.637111317011472Clb=-6.8m/s Type=DFM17 ser=[BC]22042582 Details on http://radiosondy.info
W4DEX-14D220425822022-12-06 01:10:3035.7706-77.644411117011576Clb=-6.8m/s Type=DFM17 ser=[BC]22042582 Details on http://radiosondy.info
W4DEX-14D220425822022-12-06 01:10:1535.7728-77.651710717411681Clb=-6.9m/s Type=DFM17 ser=[BC]22042582 Details on http://radiosondy.info
W4DEX-14D220425822022-12-06 01:10:0035.7751-77.659211218011787Clb=-6.8m/s Type=DFM17 ser=[BC]22042582 Details on http://radiosondy.info
W4DEX-14D220425822022-12-06 01:09:4735.7776-77.66711718311892Clb=-6.9m/s Type=DFM17 ser=[BC]22042582 Details on http://radiosondy.info
W4DEX-14D220425822022-12-06 01:09:3235.7803-77.674711617411998Clb=-7.0m/s Type=DFM17 ser=[BC]22042582 Details on http://radiosondy.info
W4DEX-14D220425822022-12-06 01:09:1635.7829-77.68211117412104Clb=-7.2m/s Type=DFM17 ser=[BC]22042582 Details on http://radiosondy.info
W4DEX-14D220425822022-12-06 01:09:0135.7853-77.689410717612210Clb=-6.8m/s Type=DFM17 ser=[BC]22042582 Details on http://radiosondy.info
W4DEX-14D220425822022-12-06 01:08:4635.7875-77.69710817412318Clb=-7.6m/s Type=DFM17 ser=[BC]22042582 Details on http://radiosondy.info
W4DEX-14D220425822022-12-06 01:08:2935.7896-77.704611217012427Clb=-7.3m/s Type=DFM17 ser=[BC]22042582 Details on http://radiosondy.info
W4DEX-14D220425822022-12-06 01:08:1235.7918-77.71211517212538Clb=-7.6m/s Type=DFM17 ser=[BC]22042582 Details on http://radiosondy.info
W4DEX-14D220425822022-12-06 01:07:5735.7941-77.719411117812650Clb=-7.6m/s Type=DFM17 ser=[BC]22042582 Details on http://radiosondy.info
W4DEX-14D220425822022-12-06 01:07:4235.7966-77.72711718312769Clb=-8.1m/s Type=DFM17 ser=[BC]22042582 Details on http://radiosondy.info
W4DEX-14D220425822022-12-06 01:07:2735.7994-77.734711718712890Clb=-8.0m/s Type=DFM17 ser=[BC]22042582 Details on http://radiosondy.info
W4DEX-14D220425822022-12-06 01:07:1235.8023-77.742511218713013Clb=-8.1m/s Type=DFM17 ser=[BC]22042582 Details on http://radiosondy.info
W4DEX-14D220425822022-12-06 01:06:5735.8053-77.750411319113139Clb=-8.4m/s Type=DFM17 ser=[BC]22042582 Details on http://radiosondy.info
W4DEX-14D220425822022-12-06 01:06:4335.8116-77.76612018113397Clb=-8.6m/s Type=DFM17 ser=[BC]22042582 Details on http://radiosondy.info
W4DEX-14D220425822022-12-06 01:06:4235.8148-77.773412218013528Clb=-8.7m/s Type=DFM17 ser=[BC]22042582 Details on http://radiosondy.info
W4DEX-14D220425822022-12-06 01:06:4135.8179-77.780712318313661Clb=-8.7m/s Type=DFM17 ser=[BC]22042582 Details on http://radiosondy.info
W4DEX-14D220425822022-12-06 01:06:4035.8214-77.787912618313792Clb=-8.6m/s Type=DFM17 ser=[BC]22042582 Details on http://radiosondy.info
W4DEX-14D220425822022-12-06 01:06:3735.825-77.795112517213924Clb=-8.6m/s Type=DFM17 ser=[BC]22042582 Details on http://radiosondy.info
W4DEX-14D220425822022-12-06 01:06:2835.8287-77.801612216914057Clb=-8.9m/s Type=DFM17 ser=[BC]22042582 Details on http://radiosondy.info
W4DEX-14D220425822022-12-06 01:06:1835.8321-77.808212017014192Clb=-8.8m/s Type=DFM17 ser=[BC]22042582 Details on http://radiosondy.info
W4DEX-14D220425822022-12-06 01:06:0735.8354-77.814911917214327Clb=-9.1m/s Type=DFM17 ser=[BC]22042582 Details on http://radiosondy.info
W4DEX-14D220425822022-12-06 01:06:0035.8389-77.821512016914464Clb=-9.1m/s Type=DFM17 ser=[BC]22042582 Details on http://radiosondy.info
W4DEX-14D220425822022-12-06 01:05:5835.8425-77.82812118114601Clb=-9.2m/s Type=DFM17 ser=[BC]22042582 Details on http://radiosondy.info
W4DEX-14D220425822022-12-06 01:05:5535.8461-77.835112218914738Clb=-9.1m/s Type=DFM17 ser=[BC]22042582 Details on http://radiosondy.info
W4DEX-14D220425822022-12-06 01:05:5335.8499-77.842412419114877Clb=-9.1m/s Type=DFM17 ser=[BC]22042582 Details on http://radiosondy.info
W4DEX-14D220425822022-12-06 01:05:5035.8539-77.849612617615016Clb=-9.3m/s Type=DFM17 ser=[BC]22042582 Details on http://radiosondy.info
W4DEX-14D220425822022-12-06 01:05:4735.8579-77.856113217015158Clb=-9.3m/s Type=DFM17 ser=[BC]22042582 Details on http://radiosondy.info
W4DEX-14D220425822022-12-06 01:05:4535.8617-77.862413214815300Clb=-9.5m/s Type=DFM17 ser=[BC]22042582 Details on http://radiosondy.info
W4DEX-14D220425822022-12-06 01:05:3735.865-77.867813213115446Clb=-10.6m/s Type=DFM17 ser=[BC]22042582 Details on http://radiosondy.info
W4DEX-14D220425822022-12-06 01:05:2035.8677-77.872813012215599Clb=-10.1m/s Type=DFM17 ser=[BC]22042582 Details on http://radiosondy.info
W4DEX-14D220425822022-12-06 01:05:0835.8702-77.877512811515754Clb=-10.3m/s Type=DFM17 ser=[BC]22042582 Details on http://radiosondy.info
W4DEX-14D220425822022-12-06 01:05:0035.8721-77.882211811315910Clb=-10.3m/s Type=DFM17 ser=[BC]22042582 Details on http://radiosondy.info
W4DEX-14D220425822022-12-06 01:04:5935.8735-77.89259612016214Clb=-10.4m/s Type=DFM17 ser=[BC]22042582 Details on http://radiosondy.info
W4DEX-14D220425822022-12-06 01:04:5735.8735-77.8989112816371Clb=-10.3m/s Type=DFM17 ser=[BC]22042582 Details on http://radiosondy.info
W4DEX-14D220425822022-12-06 01:04:4735.8736-77.90389312416530Clb=-10.3m/s Type=DFM17 ser=[BC]22042582 Details on http://radiosondy.info
W4DEX-14D220425822022-12-06 01:04:3335.8743-77.90959512016690Clb=-10.8m/s Type=DFM17 ser=[BC]22042582 Details on http://radiosondy.info
W4DEX-14D220425822022-12-06 01:04:1335.8751-77.91499711316855Clb=-10.8m/s Type=DFM17 ser=[BC]22042582 Details on http://radiosondy.info
W4DEX-14D220425822022-12-06 01:03:5435.8764-77.919711210017019Clb=-10.9m/s Type=DFM17 ser=[BC]22042582 Details on http://radiosondy.info
W4DEX-14D220425822022-12-06 01:03:3335.8775-77.9241139417184Clb=-11.1m/s Type=DFM17 ser=[BC]22042582 Details on http://radiosondy.info
W4DEX-14D220425822022-12-06 01:03:1235.8781-77.928210210617354Clb=-11.3m/s Type=DFM17 ser=[BC]22042582 Details on http://radiosondy.info
W4DEX-14D220425822022-12-06 01:02:5335.8785-77.93310610017527Clb=-11.4m/s Type=DFM17 ser=[BC]22042582 Details on http://radiosondy.info
W4DEX-14D220425822022-12-06 01:02:3335.8792-77.93751049817704Clb=-11.5m/s Type=DFM17 ser=[BC]22042582 Details on http://radiosondy.info
W4DEX-14D220425822022-12-06 01:02:1335.8801-77.94181078017884Clb=-12.0m/s Type=DFM17 ser=[BC]22042582 Details on http://radiosondy.info
W4DEX-14D220425822022-12-06 01:01:5335.881-77.94531146518065Clb=-11.9m/s Type=DFM17 ser=[BC]22042582 Details on http://radiosondy.info
W4DEX-14D220425822022-12-06 01:01:2935.8822-77.94791255418247Clb=-12.5m/s Type=DFM17 ser=[BC]22042582 Details on http://radiosondy.info
W4DEX-14D220425822022-12-06 01:01:0835.8831-77.95011126318431Clb=-12.1m/s Type=DFM17 ser=[BC]22042582 Details on http://radiosondy.info
W4DEX-14D220425822022-12-06 01:00:4635.8839-77.95281146918617Clb=-11.9m/s Type=DFM17 ser=[BC]22042582 Details on http://radiosondy.info
W4DEX-14D220425822022-12-06 01:00:2635.8851-77.95551214418811Clb=-13.1m/s Type=DFM17 ser=[BC]22042582 Details on http://radiosondy.info
W4DEX-14D220425822022-12-06 01:00:0335.8858-77.95741104119012Clb=-13.5m/s Type=DFM17 ser=[BC]22042582 Details on http://radiosondy.info
W4DEX-14D220425822022-12-06 00:59:4435.8864-77.95911144419218Clb=-14.1m/s Type=DFM17 ser=[BC]22042582 Details on http://radiosondy.info
W4DEX-14D220425822022-12-06 00:59:2335.887-77.9611073319429Clb=-14.1m/s Type=DFM17 ser=[BC]22042582 Details on http://radiosondy.info
W4DEX-14D220425822022-12-06 00:59:0335.8874-77.9625933319643Clb=-14.4m/s Type=DFM17 ser=[BC]22042582 Details on http://radiosondy.info
W4DEX-14D220425822022-12-06 00:58:4235.8872-77.964824119860Clb=-14.2m/s Type=DFM17 ser=[BC]22042582 Details on http://radiosondy.info
W4DEX-14D220425822022-12-06 00:58:2335.8869-77.9658834320077Clb=-14.6m/s Type=DFM17 ser=[BC]22042582 Details on http://radiosondy.info
W4DEX-14D220425822022-12-06 00:58:0035.8868-77.9678883320295Clb=-14.4m/s Type=DFM17 ser=[BC]22042582 Details on http://radiosondy.info
W4DEX-14D220425822022-12-06 00:57:3835.8869-77.9693874120515Clb=-14.7m/s Type=DFM17 ser=[BC]22042582 Details on http://radiosondy.info
W4DEX-14D220425822022-12-06 00:57:1535.8867-77.9712776320737Clb=-14.7m/s Type=DFM17 ser=[BC]22042582 Details on http://radiosondy.info
W4DEX-14D220425822022-12-06 00:56:5335.8863-77.9741907220966Clb=-15.5m/s Type=DFM17 ser=[BC]22042582 Details on http://radiosondy.info
W4DEX-14D220425822022-12-06 00:56:3135.8866-77.97741066121203Clb=-16.2m/s Type=DFM17 ser=[BC]22042582 Details on http://radiosondy.info
W4DEX-14D220425822022-12-06 00:56:1135.8871-77.98011105221451Clb=-16.9m/s Type=DFM17 ser=[BC]22042582 Details on http://radiosondy.info
W4DEX-14D220425822022-12-06 00:55:4835.8878-77.98221042421708Clb=-16.8m/s Type=DFM17 ser=[BC]22042582 Details on http://radiosondy.info
W4DEX-14D220425822022-12-06 00:55:2535.8877-77.9833482621970Clb=-17.4m/s Type=DFM17 ser=[BC]22042582 Details on http://radiosondy.info
W4DEX-14D220425822022-12-06 00:55:0335.8868-77.9838153322237Clb=-17.5m/s Type=DFM17 ser=[BC]22042582 Details on http://radiosondy.info
W4DEX-14D220425822022-12-06 00:54:4335.8859-77.9847593722507Clb=-17.9m/s Type=DFM17 ser=[BC]22042582 Details on http://radiosondy.info
W4DEX-14D220425822022-12-06 00:54:2035.8857-77.9865965622780Clb=-18.5m/s Type=DFM17 ser=[BC]22042582 Details on http://radiosondy.info
W4DEX-14D220425822022-12-06 00:53:5535.8861-77.9889895923058Clb=-18.4m/s Type=DFM17 ser=[BC]22042582 Details on http://radiosondy.info
W4DEX-14D220425822022-12-06 00:53:3135.8857-77.9916686523335Clb=-18.2m/s Type=DFM17 ser=[BC]22042582 Details on http://radiosondy.info
W4DEX-14D220425822022-12-06 00:53:0835.8846-77.9943677023618Clb=-18.1m/s Type=DFM17 ser=[BC]22042582 Details on http://radiosondy.info
W4DEX-14D220425822022-12-06 00:52:4335.8839-77.9974826723907Clb=-19.3m/s Type=DFM17 ser=[BC]22042582 Details on http://radiosondy.info
W4DEX-14D220425822022-12-06 00:52:1735.884-78.0005967024208Clb=-20.5m/s Type=DFM17 ser=[BC]22042582 Details on http://radiosondy.info
W4DEX-14D220425822022-12-06 00:51:5735.8845-78.0037998524520Clb=-21.2m/s Type=DFM17 ser=[BC]22042582 Details on http://radiosondy.info
W4DEX-14D220425822022-12-06 00:51:4235.8846-78.0076896724831Clb=-20.7m/s Type=DFM17 ser=[BC]22042582 Details on http://radiosondy.info
W4DEX-14D220425822022-12-06 00:51:2735.8846-78.0107816325124Clb=-18.1m/s Type=DFM17 ser=[BC]22042582 Details on http://radiosondy.info
W4DEX-14D220425822022-12-06 00:51:1235.8841-78.0135786325407Clb=-18.2m/s Type=DFM17 ser=[BC]22042582 Details on http://radiosondy.info
W4DEX-14D220425822022-12-06 00:50:5735.8839-78.01641038025662Clb=-17.5m/s Type=DFM17 ser=[BC]22042582 Details on http://radiosondy.info
W4DEX-14D220425822022-12-06 00:50:4235.884-78.0201798125928Clb=-17.1m/s Type=DFM17 ser=[BC]22042582 Details on http://radiosondy.info
W4DEX-14D220425822022-12-06 00:50:2835.8834-78.02371058126191Clb=-21.6m/s Type=DFM17 ser=[BC]22042582 Details on http://radiosondy.info
W4DEX-14D220425822022-12-06 00:50:1235.883-78.0272888726448Clb=-16.0m/s Type=DFM17 ser=[BC]22042582 Details on http://radiosondy.info
W4DEX-14D220425822022-12-06 00:49:5735.8824-78.0313928326683Clb=-16.8m/s Type=DFM17 ser=[BC]22042582 Details on http://radiosondy.info
W4DEX-14D220425822022-12-06 00:49:4235.8824-78.03511029326931Clb=-17.3m/s Type=DFM17 ser=[BC]22042582 Details on http://radiosondy.info
W4DEX-14D220425822022-12-06 00:49:4035.87-78.11788515931348Clb=-25.1m/s Type=DFM17 ser=[BC]22042582 Details on http://radiosondy.info
W4DEX-14D220425822022-12-06 00:49:3635.8686-78.12488017631723Clb=-25.3m/s Type=DFM17 ser=[BC]22042582 Details on http://radiosondy.info
W4DEX-14D220425822022-12-06 00:49:3535.8673-78.13277917832108Clb=-25.9m/s Type=DFM17 ser=[BC]22042582 Details on http://radiosondy.info
W4DEX-14D220425822022-12-06 00:49:3435.8665-78.14089416932495Clb=-26.0m/s Type=DFM17 ser=[BC]22042582 Details on http://radiosondy.info
W4DEX-14D220425822022-12-06 00:49:3335.8663-78.14859517032782Clb=7.8m/s Type=DFM17 ser=[BC]22042582 Details on http://radiosondy.info
W4DEX-14D220425822022-12-06 00:49:3235.8668-78.15618316932681Clb=9.4m/s Type=DFM17 ser=[BC]22042582 Details on http://radiosondy.info
W4DEX-14D220425822022-12-06 00:49:3135.8667-78.163910617832573Clb=10.3m/s Type=DFM17 ser=[BC]22042582 Details on http://radiosondy.info
W4DEX-14D220425822022-12-06 00:49:3035.8668-78.17198318932467Clb=-0.0m/s Type=DFM17 ser=[BC]22042582 Details on http://radiosondy.info
W4DEX-14D220425822022-12-06 00:49:2935.867-78.18049017832361Clb=6.8m/s Type=DFM17 ser=[BC]22042582 Details on http://radiosondy.info
W4DEX-14D220425822022-12-06 00:49:2835.8663-78.18847918932243Clb=9.4m/s Type=DFM17 ser=[BC]22042582 Details on http://radiosondy.info
W4DEX-14D220425822022-12-06 00:49:2635.8652-78.19677118032133Clb=5.7m/s Type=DFM17 ser=[BC]22042582 Details on http://radiosondy.info
W4DEX-14D220425822022-12-06 00:49:1135.8632-78.20479217832026Clb=10.8m/s Type=DFM17 ser=[BC]22042582 Details on http://radiosondy.info
W4DEX-14D220425822022-12-06 00:48:4535.8619-78.21248218331916Clb=5.6m/s Type=DFM17 ser=[BC]22042582 Details on http://radiosondy.info
W4DEX-14D220425822022-12-06 00:48:2135.861-78.22057618531803Clb=7.2m/s Type=DFM17 ser=[BC]22042582 Details on http://radiosondy.info
W4DEX-14D220425822022-12-06 00:47:5335.8598-78.22876617631701Clb=6.8m/s Type=DFM17 ser=[BC]22042582 Details on http://radiosondy.info
W4DEX-14D220425822022-12-06 00:47:2635.8584-78.23657316331596Clb=3.9m/s Type=DFM17 ser=[BC]22042582 Details on http://radiosondy.info
W4DEX-14D220425822022-12-06 00:46:5935.8567-78.24378515631504Clb=10.3m/s Type=DFM17 ser=[BC]22042582 Details on http://radiosondy.info
W4DEX-14D220425822022-12-06 00:46:3035.8553-78.25098416731406Clb=6.4m/s Type=DFM17 ser=[BC]22042582 Details on http://radiosondy.info
W4DEX-14D220425822022-12-06 00:46:0235.8546-78.25827017431329Clb=7.0m/s Type=DFM17 ser=[BC]22042582 Details on http://radiosondy.info
W4DEX-14D220425822022-12-06 00:45:3735.8536-78.26557115731242Clb=3.4m/s Type=DFM17 ser=[BC]22042582 Details on http://radiosondy.info
W4DEX-14D220425822022-12-06 00:45:0935.8525-78.27289014331163Clb=7.8m/s Type=DFM17 ser=[BC]22042582 Details on http://radiosondy.info
W4DEX-14D220425822022-12-06 00:44:4535.8516-78.2796816331078Clb=6.2m/s Type=DFM17 ser=[BC]22042582 Details on http://radiosondy.info
W4DEX-14D220425822022-12-06 00:44:1835.8504-78.28659614630998Clb=-0.5m/s Type=DFM17 ser=[BC]22042582 Details on http://radiosondy.info
W4DEX-14D220425822022-12-06 00:43:5235.849-78.29298414630906Clb=3.7m/s Type=DFM17 ser=[BC]22042582 Details on http://radiosondy.info
W4DEX-14D220425822022-12-06 00:43:2435.8478-78.29916614330826Clb=0.6m/s Type=DFM17 ser=[BC]22042582 Details on http://radiosondy.info
W4DEX-14D220425822022-12-06 00:42:5735.8467-78.30555815630732Clb=8.7m/s Type=DFM17 ser=[BC]22042582 Details on http://radiosondy.info
W4DEX-14D220425822022-12-06 00:42:2735.8455-78.31236215930639Clb=8.3m/s Type=DFM17 ser=[BC]22042582 Details on http://radiosondy.info
W4DEX-14D220425822022-12-06 00:41:5835.8442-78.31937615430539Clb=2.6m/s Type=DFM17 ser=[BC]22042582 Details on http://radiosondy.info
W4DEX-14D220425822022-12-06 00:41:3135.8427-78.32629415030428Clb=4.3m/s Type=DFM17 ser=[BC]22042582 Details on http://radiosondy.info
W4DEX-14D220425822022-12-06 00:41:0335.8412-78.33288713930324Clb=12.0m/s Type=DFM17 ser=[BC]22042582 Details on http://radiosondy.info
W4DEX-14D220425822022-12-06 00:40:3435.8404-78.33918214330213Clb=0.8m/s Type=DFM Details on http://radiosondy.info
W4DEX-14D220425822022-12-06 00:40:0735.8395-78.34536615030100Clb=6.9m/s Type=DFM17 ser=[BC]22042582 Details on http://radiosondy.info
W4DEX-14D220425822022-12-06 00:39:3835.8386-78.35197215229989Clb=8.0m/s Type=DFM17 ser=[BC]22042582 Details on http://radiosondy.info
W4DEX-14D220425822022-12-06 00:39:1335.8373-78.35868414129876Clb=6.3m/s Type=DFM17 ser=[BC]22042582 Details on http://radiosondy.info
W4DEX-14D220425822022-12-06 00:38:4635.8361-78.36489613329776Clb=9.0m/s Type=DFM17 ser=[BC]22042582 Details on http://radiosondy.info
W4DEX-14D220425822022-12-06 00:38:2135.8353-78.37079613129672Clb=6.7m/s Type=DFM17 ser=[BC]22042582 Details on http://radiosondy.info
W4DEX-14D220425822022-12-06 00:37:5135.8345-78.37658713129567Clb=5.6m/s Type=DFM17 ser=[BC]22042582 Details on http://radiosondy.info
W4DEX-14D220425822022-12-06 00:37:1935.834-78.38238013329464Clb=4.6m/s Type=DFM17 ser=[BC]22042582 Details on http://radiosondy.info
W4DEX-14D220425822022-12-06 00:36:4535.8337-78.38878713729375Clb=9.9m/s Type=DFM17 ser=[BC]22042582 Details on http://radiosondy.info
W4DEX-14D220425822022-12-06 00:36:1635.8335-78.3957414129286Clb=2.0m/s Type=DFM17 ser=[BC]22042582 Details on http://radiosondy.info
W4DEX-14D220425822022-12-06 00:35:5535.8335-78.40147014129195Clb=4.4m/s Type=DFM17 ser=[BC]22042582 Details on http://radiosondy.info
W4DEX-14D220425822022-12-06 00:35:4035.8334-78.40789013329105Clb=9.0m/s Type=DFM17 ser=[BC]22042582 Details on http://radiosondy.info
W4DEX-14D220425822022-12-06 00:35:3135.8326-78.41398613129015Clb=6.4m/s Type=DFM17 ser=[BC]22042582 Details on http://radiosondy.info
W4DEX-14D220425822022-12-06 00:35:1235.8317-78.41988712628928Clb=2.9m/s Type=DFM17 ser=[BC]22042582 Details on http://radiosondy.info
W4DEX-14D220425822022-12-06 00:34:5535.8302-78.4259011928828Clb=4.5m/s Type=DFM17 ser=[BC]22042582 Details on http://radiosondy.info
W4DEX-14D220425822022-12-06 00:34:4035.8288-78.438512428733Clb=9.1m/s Type=DFM17 ser=[BC]22042582 Details on http://radiosondy.info
W4DEX-14D220425822022-12-06 00:34:2835.8279-78.43547213028642Clb=6.1m/s Type=DFM17 ser=[BC]22042582 Details on http://radiosondy.info
W4DEX-14D220425822022-12-06 00:34:1235.8272-78.44126413128540Clb=5.3m/s Type=DFM17 ser=[BC]22042582 Details on http://radiosondy.info
W4DEX-14D220425822022-12-06 00:33:5535.8264-78.4476011728437Clb=3.8m/s Type=DFM17 ser=[BC]22042582 Details on http://radiosondy.info
W4DEX-14D220425822022-12-06 00:33:4035.8256-78.45226210928331Clb=6.3m/s Type=DFM17 ser=[BC]22042582 Details on http://radiosondy.info
W4DEX-14D220425822022-12-06 00:33:2535.8245-78.4568859828237Clb=7.0m/s Type=DFM17 ser=[BC]22042582 Details on http://radiosondy.info
W4DEX-14D220425822022-12-06 00:33:1035.8234-78.4609959628140Clb=3.5m/s Type=DFM17 ser=[BC]22042582 Details on http://radiosondy.info
W4DEX-14D220425822022-12-06 00:32:4535.8095-78.5865966125079Clb=7.4m/s Type=DFM17 ser=[BC]22042582 Details on http://radiosondy.info
W4DEX-14D220425822022-12-06 00:32:1835.8094-78.5892937024990Clb=5.5m/s Type=DFM17 ser=[BC]22042582 Details on http://radiosondy.info
W4DEX-14D220425822022-12-06 00:31:4735.8094-78.5924977624902Clb=6.2m/s Type=DFM17 ser=[BC]22042582 Details on http://radiosondy.info
W4DEX-14D220425822022-12-06 00:31:2035.8091-78.5959818524813Clb=7.0m/s Type=DFM17 ser=[BC]22042582 Details on http://radiosondy.info
W4DEX-14D220425822022-12-06 00:30:5035.8089-78.5997869424723Clb=7.1m/s Type=DFM17 ser=[BC]22042582 Details on http://radiosondy.info
W4DEX-14D220425822022-12-06 00:30:2335.8086-78.6041819324636Clb=6.7m/s Type=DFM17 ser=[BC]22042582 Details on http://radiosondy.info
W4DEX-14D220425822022-12-06 00:29:5435.8083-78.6083779324545Clb=2.3m/s Type=DFM17 ser=[BC]22042582 Details on http://radiosondy.info
W4DEX-14D220425822022-12-06 00:29:2835.8081-78.6125828024453Clb=6.1m/s Type=DFM17 ser=[BC]22042582 Details on http://radiosondy.info
W4DEX-14D220425822022-12-06 00:28:5835.8082-78.61611147624365Clb=5.7m/s Type=DFM17 ser=[BC]22042582 Details on http://radiosondy.info
W4DEX-14D220425822022-12-06 00:28:3235.8086-78.6195927224275Clb=6.8m/s Type=DFM17 ser=[BC]22042582 Details on http://radiosondy.info
W4DEX-14D220425822022-12-06 00:28:0435.8088-78.6227897624187Clb=6.8m/s Type=DFM17 ser=[BC]22042582 Details on http://radiosondy.info
W4DEX-14D220425822022-12-06 00:27:3535.8089-78.62621067024107Clb=1.9m/s Type=DFM17 ser=[BC]22042582 Details on http://radiosondy.info
W4DEX-14D220425822022-12-06 00:27:0435.8091-78.6293996924027Clb=6.2m/s Type=DFM17 ser=[BC]22042582 Details on http://radiosondy.info
W4DEX-14D220425822022-12-06 00:26:3735.8089-78.6324806323946Clb=4.2m/s Type=DFM17 ser=[BC]22042582 Details on http://radiosondy.info
W4DEX-14D220425822022-12-06 00:26:0735.8085-78.6353767023862Clb=5.4m/s Type=DFM17 ser=[BC]22042582 Details on http://radiosondy.info
W4DEX-14D220425822022-12-06 00:25:3935.8081-78.6385717023785Clb=4.2m/s Type=DFM17 ser=[BC]22042582 Details on http://radiosondy.info
W4DEX-14D220425822022-12-06 00:25:0935.8076-78.6416685923704Clb=6.1m/s Type=DFM17 ser=[BC]22042582 Details on http://radiosondy.info
W4DEX-14D220425822022-12-06 00:24:4135.8068-78.6441765423619Clb=5.8m/s Type=DFM17 ser=[BC]22042582 Details on http://radiosondy.info
W4DEX-14D220425822022-12-06 00:24:1135.8059-78.6463625723530Clb=4.7m/s Type=DFM17 ser=[BC]22042582 Details on http://radiosondy.info
W4DEX-14D220425822022-12-06 00:23:4335.8052-78.6487705923435Clb=5.2m/s Type=DFM17 ser=[BC]22042582 Details on http://radiosondy.info
W4DEX-14D220425822022-12-06 00:23:1535.8049-78.65151145923336Clb=5.6m/s Type=DFM17 ser=[BC]22042582 Details on http://radiosondy.info
W4DEX-14D220425822022-12-06 00:22:4735.8047-78.6541744623239Clb=6.3m/s Type=DFM17 ser=[BC]22042582 Details on http://radiosondy.info
W4DEX-14D220425822022-12-06 00:22:1735.8048-78.6562855023136Clb=7.3m/s Type=DFM17 ser=[BC]22042582 Details on http://radiosondy.info
W4DEX-14D220425822022-12-06 00:21:4935.8051-78.65841195423032Clb=6.9m/s Type=DFM17 ser=[BC]22042582 Details on http://radiosondy.info
W4DEX-14D220425822022-12-06 00:21:2235.8054-78.6608985422922Clb=7.7m/s Type=DFM17 ser=[BC]22042582 Details on http://radiosondy.info
W4DEX-14D220425822022-12-06 00:20:5535.8059-78.663935722813Clb=9.3m/s Type=DFM17 ser=[BC]22042582 Details on http://radiosondy.info
W4DEX-14D220425822022-12-06 00:20:2635.8066-78.66551125722699Clb=6.6m/s Type=DFM17 ser=[BC]22042582 Details on http://radiosondy.info
W4DEX-14D220425822022-12-06 00:19:5635.8072-78.6679854422596Clb=6.7m/s Type=DFM17 ser=[BC]22042582 Details on http://radiosondy.info
W4DEX-14D220425822022-12-06 00:19:2935.8078-78.66971163122499Clb=7.9m/s Type=DFM17 ser=[BC]22042582 Details on http://radiosondy.info
W4DEX-14D220425822022-12-06 00:19:0235.808-78.671722422406Clb=9.0m/s Type=DFM17 ser=[BC]22042582 Details on http://radiosondy.info
W4DEX-14D220425822022-12-06 00:18:3535.8081-78.6721082022317Clb=5.7m/s Type=DFM17 ser=[BC]22042582 Details on http://radiosondy.info
W4DEX-14D220425822022-12-06 00:18:0835.808-78.6728592022231Clb=5.4m/s Type=DFM17 ser=[BC]22042582 Details on http://radiosondy.info
W4DEX-14D220425822022-12-06 00:17:3935.8075-78.6733472422144Clb=8.0m/s Type=DFM17 ser=[BC]22042582 Details on http://radiosondy.info
W4DEX-14D220425822022-12-06 00:17:1035.8072-78.674182422055Clb=7.3m/s Type=DFM17 ser=[BC]22042582 Details on http://radiosondy.info
W4DEX-14D220425822022-12-06 00:16:4235.8066-78.674432421970Clb=4.0m/s Type=DFM17 ser=[BC]22042582 Details on http://radiosondy.info
W4DEX-14D220425822022-12-06 00:16:1435.8065-78.6754733521883Clb=6.3m/s Type=DFM17 ser=[BC]22042582 Details on http://radiosondy.info
W4DEX-14D220425822022-12-06 00:15:5435.8065-78.6771044621806Clb=4.5m/s Type=DFM17 ser=[BC]22042582 Details on http://radiosondy.info
W4DEX-14D220425822022-12-06 00:15:3935.8068-78.6791996121732Clb=5.9m/s Type=DFM17 ser=[BC]22042582 Details on http://radiosondy.info
W4DEX-14D220425822022-12-06 00:15:2735.8075-78.68171187221654Clb=3.4m/s Type=DFM17 ser=[BC]22042582 Details on http://radiosondy.info
W4DEX-14D220425822022-12-06 00:15:1135.8084-78.6848886721583Clb=4.9m/s Type=DFM17 ser=[BC]22042582 Details on http://radiosondy.info
W4DEX-14D220425822022-12-06 00:14:5435.8088-78.68771076121492Clb=4.0m/s Type=DFM17 ser=[BC]22042582 Details on http://radiosondy.info
W4DEX-14D220425822022-12-06 00:14:4435.8089-78.6905906121408Clb=5.0m/s Type=DFM17 ser=[BC]22042582 Details on http://radiosondy.info
W4DEX-14D220425822022-12-06 00:14:4035.8092-78.6932977021320Clb=6.6m/s Type=DFM17 ser=[BC]22042582 Details on http://radiosondy.info
W4DEX-14D220425822022-12-06 00:14:3435.8095-78.69641137621221Clb=7.4m/s Type=DFM17 ser=[BC]22042582 Details on http://radiosondy.info
W4DEX-14D220425822022-12-06 00:14:1635.8097-78.6999936321122Clb=7.3m/s Type=DFM17 ser=[BC]22042582 Details on http://radiosondy.info
W4DEX-14D220425822022-12-06 00:14:0135.8096-78.7028786721021Clb=6.8m/s Type=DFM17 ser=[BC]22042582 Details on http://radiosondy.info
W4DEX-14D220425822022-12-06 00:13:5735.809-78.7057696520926Clb=8.5m/s Type=DFM17 ser=[BC]22042582 Details on http://radiosondy.info
W4DEX-14D220425822022-12-06 00:13:5335.8082-78.7084526320834Clb=3.6m/s Type=DFM17 ser=[BC]22042582 Details on http://radiosondy.info
W4DEX-14D220425822022-12-06 00:13:4835.8074-78.7109655620747Clb=4.5m/s Type=DFM17 ser=[BC]22042582 Details on http://radiosondy.info
W4DEX-14D220425822022-12-06 00:13:4435.8066-78.7133544420664Clb=6.0m/s Type=DFM17 ser=[BC]22042582 Details on http://radiosondy.info
W4DEX-14D220425822022-12-06 00:13:4235.806-78.7152804320584Clb=2.6m/s Type=DFM17 ser=[BC]22042582 Details on http://radiosondy.info
W4DEX-14D220425822022-12-06 00:13:3935.8055-78.717613920508Clb=6.6m/s Type=DFM17 ser=[BC]22042582 Details on http://radiosondy.info
W4DEX-14D220425822022-12-06 00:13:3835.8052-78.7187683720430Clb=4.1m/s Type=DFM17 ser=[BC]22042582 Details on http://radiosondy.info
W4DEX-14D220425822022-12-06 00:13:3735.8051-78.72041053120352Clb=6.9m/s Type=DFM17 ser=[BC]22042582 Details on http://radiosondy.info
W4DEX-14D220425822022-12-06 00:13:3635.8053-78.7218924320276Clb=4.1m/s Type=DFM17 ser=[BC]22042582 Details on http://radiosondy.info
W4DEX-14D220425822022-12-06 00:13:3435.8057-78.72371365420198Clb=4.4m/s Type=DFM17 ser=[BC]22042582 Details on http://radiosondy.info
W4DEX-14D220425822022-12-06 00:13:1735.8063-78.72591005420121Clb=5.0m/s Type=DFM17 ser=[BC]22042582 Details on http://radiosondy.info
W4DEX-14D220425822022-12-06 00:13:0135.8062-78.7284755220037Clb=5.5m/s Type=DFM17 ser=[BC]22042582 Details on http://radiosondy.info
W4DEX-14D220425822022-12-06 00:13:0035.8058-78.7307635219959Clb=6.3m/s Type=DFM17 ser=[BC]22042582 Details on http://radiosondy.info
W4DEX-14D220425822022-12-06 00:12:5935.8057-78.7331044319870Clb=8.6m/s Type=DFM17 ser=[BC]22042582 Details on http://radiosondy.info
W4DEX-14D220425822022-12-06 00:12:5835.8059-78.735984819787Clb=8.4m/s Type=DFM17 ser=[BC]22042582 Details on http://radiosondy.info
W4DEX-14D220425822022-12-06 00:12:5735.806-78.73711173919700Clb=6.2m/s Type=DFM17 ser=[BC]22042582 Details on http://radiosondy.info
W4DEX-14D220425822022-12-06 00:12:5635.8066-78.73871194419612Clb=6.1m/s Type=DFM17 ser=[BC]22042582 Details on http://radiosondy.info
W4DEX-14D220425822022-12-06 00:12:5535.8074-78.74051204319522Clb=6.5m/s Type=DFM17 ser=[BC]22042582 Details on http://radiosondy.info
W4DEX-14D220425822022-12-06 00:12:4735.8082-78.74211294819431Clb=7.6m/s Type=DFM17 ser=[BC]22042582 Details on http://radiosondy.info
W4DEX-14D220425822022-12-06 00:12:2435.809-78.74411125019336Clb=5.9m/s Type=DFM17 ser=[BC]22042582 Details on http://radiosondy.info
W4DEX-14D220425822022-12-06 00:11:5535.8099-78.7461185219244Clb=6.0m/s Type=DFM17 ser=[BC]22042582 Details on http://radiosondy.info
W4DEX-14D220425822022-12-06 00:11:2935.8106-78.74821424319156Clb=5.8m/s Type=DFM17 ser=[BC]22042582 Details on http://radiosondy.info
W4DEX-14D220425822022-12-06 00:11:0135.8114-78.74991145019070Clb=5.0m/s Type=DFM17 ser=[BC]22042582 Details on http://radiosondy.info
W4DEX-14D220425822022-12-06 00:10:3635.8123-78.75191285918988Clb=5.2m/s Type=DFM17 ser=[BC]22042582 Details on http://radiosondy.info
W4DEX-14D220425822022-12-06 00:10:0335.8135-78.75411277018905Clb=4.6m/s Type=DFM17 ser=[BC]22042582 Details on http://radiosondy.info
W4DEX-14D220425822022-12-06 00:09:3535.8149-78.75691278518815Clb=7.0m/s Type=DFM17 ser=[BC]22042582 Details on http://radiosondy.info
W4DEX-14D220425822022-12-06 00:09:0835.8163-78.76031077218742Clb=5.6m/s Type=DFM17 ser=[BC]22042582 Details on http://radiosondy.info
W4DEX-14D220425822022-12-06 00:08:4135.8172-78.76341206718672Clb=3.4m/s Type=DFM17 ser=[BC]22042582 Details on http://radiosondy.info
W4DEX-14D220425822022-12-06 00:08:1335.8178-78.76641025918603Clb=5.7m/s Type=DFM17 ser=[BC]22042582 Details on http://radiosondy.info
W4DEX-14D220425822022-12-06 00:07:4435.8185-78.7691205718528Clb=4.2m/s Type=DFM17 ser=[BC]22042582 Details on http://radiosondy.info
W4DEX-14D220425822022-12-06 00:07:1835.8193-78.77151205218455Clb=5.4m/s Type=DFM17 ser=[BC]22042582 Details on http://radiosondy.info
W4DEX-14D220425822022-12-06 00:06:5235.8202-78.77341135218375Clb=6.5m/s Type=DFM17 ser=[BC]22042582 Details on http://radiosondy.info
W4DEX-14D220425822022-12-06 00:06:2735.8213-78.77551355618298Clb=4.2m/s Type=DFM17 ser=[BC]22042582 Details on http://radiosondy.info
W4DEX-14D220425822022-12-06 00:05:5935.8223-78.7777996518217Clb=7.4m/s Type=DFM17 ser=[BC]22042582 Details on http://radiosondy.info
W4DEX-14D220425822022-12-06 00:05:3135.8227-78.78051327818130Clb=7.5m/s Type=DFM17 ser=[BC]22042582 Details on http://radiosondy.info
W4DEX-14D220425822022-12-06 00:05:0535.8236-78.78381138918037Clb=6.4m/s Type=DFM17 ser=[BC]22042582 Details on http://radiosondy.info
W4DEX-14D220425822022-12-06 00:04:3935.8244-78.78781029617952Clb=5.1m/s Type=DFM17 ser=[BC]22042582 Details on http://radiosondy.info
W4DEX-14D220425822022-12-06 00:04:1235.8252-78.792110210217872Clb=5.4m/s Type=DFM17 ser=[BC]22042582 Details on http://radiosondy.info
W4DEX-14D220425822022-12-06 00:03:5435.8258-78.7967919317790Clb=4.7m/s Type=DFM17 ser=[BC]22042582 Details on http://radiosondy.info
W4DEX-14D220425822022-12-06 00:03:3935.8265-78.80091059117713Clb=4.6m/s Type=DFM17 ser=[BC]22042582 Details on http://radiosondy.info
W4DEX-14D220425822022-12-06 00:03:2735.8272-78.8059310017639Clb=3.1m/s Type=DFM17 ser=[BC]22042582 Details on http://radiosondy.info
W4DEX-14D220425822022-12-06 00:03:1235.8275-78.8095959817568Clb=4.5m/s Type=DFM17 ser=[BC]22042582 Details on http://radiosondy.info
W4DEX-14D220425822022-12-06 00:02:5435.8278-78.814969317496Clb=4.5m/s Type=DFM17 ser=[BC]22042582 Details on http://radiosondy.info
W4DEX-14D220425822022-12-06 00:02:3935.828-78.8182868517425Clb=4.9m/s Type=DFM17 ser=[BC]22042582 Details on http://radiosondy.info
W4DEX-14D220425822022-12-06 00:02:2435.8282-78.82211028717356Clb=3.6m/s Type=DFM17 ser=[BC]22042582 Details on http://radiosondy.info
W4DEX-14D220425822022-12-06 00:02:1135.8291-78.8261039417289Clb=5.1m/s Type=DFM17 ser=[BC]22042582 Details on http://radiosondy.info
W4DEX-14D220425822022-12-06 00:01:5435.8302-78.830110810017219Clb=4.2m/s Type=DFM17 ser=[BC]22042582 Details on http://radiosondy.info
W4DEX-14D220425822022-12-06 00:01:3935.8315-78.834410410717148Clb=3.6m/s Type=DFM17 ser=[BC]22042582 Details on http://radiosondy.info
W4DEX-14D220425822022-12-06 00:01:2635.833-78.839111311517076Clb=5.4m/s Type=DFM17 ser=[BC]22042582 Details on http://radiosondy.info
W4DEX-14D220425822022-12-06 00:01:0935.8345-78.84410211717009Clb=5.3m/s Type=DFM17 ser=[BC]22042582 Details on http://radiosondy.info
W4DEX-14D220425822022-12-06 00:00:5335.838-78.865210012216712Clb=6.8m/s Type=DFM17 ser=[BC]22042582 Details on http://radiosondy.info
W4DEX-14D220425822022-12-06 00:00:5135.8385-78.87088112216639Clb=5.1m/s Type=DFM17 ser=[BC]22042582 Details on http://radiosondy.info
W4DEX-14D220425822022-12-06 00:00:4735.8384-78.87649011116545Clb=5.3m/s Type=DFM17 ser=[BC]22042582 Details on http://radiosondy.info
W4DEX-14D220425822022-12-06 00:00:4335.8383-78.88158210616452Clb=3.7m/s Type=DFM17 ser=[BC]22042582 Details on http://radiosondy.info
W4DEX-14D220425822022-12-06 00:00:3835.8383-78.88639310716357Clb=3.2m/s Type=DFM17 ser=[BC]22042582 Details on http://radiosondy.info
W4DEX-14D220425822022-12-06 00:00:3635.8383-78.89139910716265Clb=6.7m/s Type=DFM17 ser=[BC]22042582 Details on http://radiosondy.info
W4DEX-14D220425822022-12-06 00:00:3335.8391-78.896211010416177Clb=4.0m/s Type=DFM17 ser=[BC]22042582 Details on http://radiosondy.info
W4DEX-14D220425822022-12-06 00:00:3235.8399-78.900810710416096Clb=5.7m/s Type=DFM17 ser=[BC]22042582 Details on http://radiosondy.info
W4DEX-14D220425822022-12-06 00:00:3135.841-78.905312110616021Clb=3.5m/s Type=DFM17 ser=[BC]22042582 Details on http://radiosondy.info
W4DEX-14D220425822022-12-06 00:00:2335.8426-78.909811211115918Clb=5.7m/s Type=DFM17 ser=[BC]22042582 Details on http://radiosondy.info
W4DEX-14D220425822022-12-05 23:59:5735.8443-78.914412311115829Clb=7.0m/s Type=DFM17 ser=[BC]22042582 Details on http://radiosondy.info
W4DEX-14D220425822022-12-05 23:59:3035.8465-78.918712911515747Clb=4.8m/s Type=DFM17 ser=[BC]22042582 Details on http://radiosondy.info
W4DEX-14D220425822022-12-05 23:59:0435.8491-78.922912312015667Clb=6.7m/s Type=DFM17 ser=[BC]22042582 Details on http://radiosondy.info
W4DEX-14D220425822022-12-05 23:58:3835.8518-78.927312212615589Clb=4.9m/s Type=DFM17 ser=[BC]22042582 Details on http://radiosondy.info
W4DEX-14D220425822022-12-05 23:58:1335.8549-78.931813713715517Clb=4.0m/s Type=DFM17 ser=[BC]22042582 Details on http://radiosondy.info
W4DEX-14D220425822022-12-05 23:57:4635.8582-78.936511915015397Clb=5.6m/s Type=DFM17 ser=[BC]22042582 Details on http://radiosondy.info
W4DEX-14D220425822022-12-05 23:57:2035.8617-78.941912415615307Clb=6.0m/s Type=DFM17 ser=[BC]22042582 Details on http://radiosondy.info
W4DEX-14D220425822022-12-05 23:56:5135.8652-78.947613215915229Clb=6.4m/s Type=DFM17 ser=[BC]22042582 Details on http://radiosondy.info
W4DEX-14D220425822022-12-05 23:56:2535.8687-78.953613017015143Clb=7.8m/s Type=DFM17 ser=[BC]22042582 Details on http://radiosondy.info
W4DEX-14D220425822022-12-05 23:56:0235.8725-78.959912618015056Clb=4.3m/s Type=DFM17 ser=[BC]22042582 Details on http://radiosondy.info
W4DEX-14D220425822022-12-05 23:56:0135.8764-78.966712718914976Clb=4.9m/s Type=DFM17 ser=[BC]22042582 Details on http://radiosondy.info
W4DEX-14D220425822022-12-05 23:56:0035.8805-78.973712519814895Clb=5.7m/s Type=DFM17 ser=[BC]22042582 Details on http://radiosondy.info
W4DEX-14D220425822022-12-05 23:55:5935.8845-78.981412319414824Clb=5.4m/s Type=DFM17 ser=[BC]22042582 Details on http://radiosondy.info
W4DEX-14D220425822022-12-05 23:55:5135.8884-78.988912219414753Clb=5.4m/s Type=DFM17 ser=[BC]22042582 Details on http://radiosondy.info
W4DEX-14D220425822022-12-05 23:55:3035.8922-78.996612019414684Clb=4.5m/s Type=DFM17 ser=[BC]22042582 Details on http://radiosondy.info
W4DEX-14D220425822022-12-05 23:55:0435.896-79.004312318914619Clb=3.2m/s Type=DFM17 ser=[BC]22042582 Details on http://radiosondy.info
W4DEX-14D220425822022-12-05 23:54:4235.8996-79.011812118714550Clb=4.6m/s Type=DFM17 ser=[BC]22042582 Details on http://radiosondy.info
W4DEX-14D220425822022-12-05 23:54:1735.9031-79.019211817614476Clb=6.6m/s Type=DFM17 ser=[BC]22042582 Details on http://radiosondy.info
W4DEX-14D220425822022-12-05 23:53:5335.9064-79.026212317014405Clb=4.7m/s Type=DFM17 ser=[BC]22042582 Details on http://radiosondy.info
W4DEX-14D220425822022-12-05 23:53:2835.9096-79.03312117014342Clb=5.1m/s Type=DFM17 ser=[BC]22042582 Details on http://radiosondy.info
W4DEX-14D220425822022-12-05 23:53:0535.9129-79.039711916114267Clb=6.5m/s Type=DFM17 ser=[BC]22042582 Details on http://radiosondy.info
W4DEX-14D220425822022-12-05 23:52:3935.9156-79.046311516514200Clb=5.6m/s Type=DFM17 ser=[BC]22042582 Details on http://radiosondy.info
W4DEX-14D220425822022-12-05 23:52:1335.9182-79.053211716114136Clb=4.1m/s Type=DFM17 ser=[BC]22042582 Details on http://radiosondy.info
W4DEX-14D220425822022-12-05 23:51:5435.9209-79.059911717214064Clb=5.6m/s Type=DFM17 ser=[BC]22042582 Details on http://radiosondy.info
W4DEX-14D220425822022-12-05 23:51:3935.9237-79.066911717213972Clb=5.5m/s Type=DFM17 ser=[BC]22042582 Details on http://radiosondy.info
W4DEX-14D220425822022-12-05 23:51:2435.9265-79.074211917613897Clb=5.7m/s Type=DFM17 ser=[BC]22042582 Details on http://radiosondy.info
W4DEX-14D220425822022-12-05 23:51:1735.9292-79.081511517813818Clb=5.6m/s Type=DFM17 ser=[BC]22042582 Details on http://radiosondy.info
W4DEX-14D220425822022-12-05 23:51:1635.9318-79.089111118713744Clb=4.8m/s Type=DFM17 ser=[BC]22042582 Details on http://radiosondy.info
W4DEX-14D220425822022-12-05 23:51:1535.9344-79.097111018113670Clb=5.1m/s Type=DFM17 ser=[BC]22042582 Details on http://radiosondy.info
W4DEX-14D220425822022-12-05 23:51:1435.9367-79.104911218013597Clb=4.5m/s Type=DFM17 ser=[BC]22042582 Details on http://radiosondy.info
W4DEX-14D220425822022-12-05 23:51:1335.939-79.112711118313527Clb=4.2m/s Type=DFM17 ser=[BC]22042582 Details on http://radiosondy.info
W4DEX-14D220425822022-12-05 23:51:0035.9415-79.120611218513456Clb=5.4m/s Type=DFM17 ser=[BC]22042582 Details on http://radiosondy.info
W4DEX-14D220425822022-12-05 23:50:3735.944-79.128611518913379Clb=6.1m/s Type=DFM17 ser=[BC]22042582 Details on http://radiosondy.info
W4DEX-14D220425822022-12-05 23:50:1335.9468-79.136511619413306Clb=4.1m/s Type=DFM17 ser=[BC]22042582 Details on http://radiosondy.info
W4DEX-14D220425822022-12-05 23:49:4935.9497-79.144811519613232Clb=5.9m/s Type=DFM17 ser=[BC]22042582 Details on http://radiosondy.info
W4DEX-14D220425822022-12-05 23:49:2635.9526-79.153111219813157Clb=5.6m/s Type=DFM17 ser=[BC]22042582 Details on http://radiosondy.info
W4DEX-14D220425822022-12-05 23:49:0135.9554-79.161511319813085Clb=4.6m/s Type=DFM17 ser=[BC]22042582 Details on http://radiosondy.info
W4DEX-14D220425822022-12-05 23:48:3635.958-79.170111120213012Clb=4.9m/s Type=DFM17 ser=[BC]22042582 Details on http://radiosondy.info
W4DEX-14D220425822022-12-05 23:48:1335.9609-79.178711319812939Clb=4.8m/s Type=DFM17 ser=[BC]22042582 Details on http://radiosondy.info
W4DEX-14D220425822022-12-05 23:47:5435.9638-79.18711419612867Clb=4.9m/s Type=DFM17 ser=[BC]22042582 Details on http://radiosondy.info
W4DEX-14D220425822022-12-05 23:47:3935.9668-79.195311319412799Clb=5.8m/s Type=DFM17 ser=[BC]22042582 Details on http://radiosondy.info
W4DEX-14D220425822022-12-05 23:47:2435.9696-79.203611519112729Clb=3.6m/s Type=DFM17 ser=[BC]22042582 Details on http://radiosondy.info
W4DEX-14D220425822022-12-05 23:47:0935.9724-79.211611518312658Clb=3.5m/s Type=DFM17 ser=[BC]22042582 Details on http://radiosondy.info
W4DEX-14D220425822022-12-05 23:46:5435.9751-79.219411318312585Clb=4.3m/s Type=DFM17 ser=[BC]22042582 Details on http://radiosondy.info
W4DEX-14D220425822022-12-05 23:46:5035.9776-79.227211318512511Clb=4.9m/s Type=DFM17 ser=[BC]22042582 Details on http://radiosondy.info
W4DEX-14D220425822022-12-05 23:46:4935.9797-79.235410418712439Clb=4.4m/s Type=DFM17 ser=[BC]22042582 Details on http://radiosondy.info
W4DEX-14D220425822022-12-05 23:46:4835.9818-79.243510619312361Clb=4.6m/s Type=DFM17 ser=[BC]22042582 Details on http://radiosondy.info
W4DEX-14D220425822022-12-05 23:46:4635.9838-79.252110318912280Clb=3.2m/s Type=DFM17 ser=[BC]22042582 Details on http://radiosondy.info
W4DEX-14D220425822022-12-05 23:46:3235.9855-79.260410919112208Clb=7.2m/s Type=DFM17 ser=[BC]22042582 Details on http://radiosondy.info
W4DEX-14D220425822022-12-05 23:46:0735.9873-79.26910618512132Clb=3.0m/s Type=DFM17 ser=[BC]22042582 Details on http://radiosondy.info
W4DEX-14D220425822022-12-05 23:45:4335.9892-79.277210518112057Clb=3.5m/s Type=DFM17 ser=[BC]22042582 Details on http://radiosondy.info
W4DEX-14D220425822022-12-05 23:45:2035.991-79.285210418011985Clb=5.3m/s Type=DFM17 ser=[BC]22042582 Details on http://radiosondy.info
W4DEX-14D220425822022-12-05 23:44:5635.993-79.293211218311919Clb=4.2m/s Type=DFM17 ser=[BC]22042582 Details on http://radiosondy.info
W4DEX-14D220425822022-12-05 23:44:3335.9953-79.301210618511856Clb=2.6m/s Type=DFM17 ser=[BC]22042582 Details on http://radiosondy.info
W4DEX-14D220425822022-12-05 23:44:1135.9975-79.309310818711796Clb=4.1m/s Type=DFM17 ser=[BC]22042582 Details on http://radiosondy.info
W4DEX-14D220425822022-12-05 23:43:5435.9998-79.317410718111733Clb=2.3m/s Type=DFM17 ser=[BC]22042582 Details on http://radiosondy.info
W4DEX-14D220425822022-12-05 23:43:3936.0021-79.325310918111674Clb=3.5m/s Type=DFM17 ser=[BC]22042582 Details on http://radiosondy.info
W4DEX-14D220425822022-12-05 23:43:2436.0045-79.333211218011616Clb=4.7m/s Type=DFM17 ser=[BC]22042582 Details on http://radiosondy.info
W4DEX-14D220425822022-12-05 23:43:0936.0067-79.34111117611553Clb=4.3m/s Type=DFM17 ser=[BC]22042582 Details on http://radiosondy.info
W4DEX-14D220425822022-12-05 23:42:5436.009-79.348711117611486Clb=5.3m/s Type=DFM17 ser=[BC]22042582 Details on http://radiosondy.info
W4DEX-14D220425822022-12-05 23:42:3936.0111-79.356311217411420Clb=5.0m/s Type=DFM17 ser=[BC]22042582 Details on http://radiosondy.info
W4DEX-14D220425822022-12-05 23:42:2936.0132-79.36410817411361Clb=3.6m/s Type=DFM17 ser=[BC]22042582 Details on http://radiosondy.info
W4DEX-14D220425822022-12-05 23:42:2836.0152-79.371610917411295Clb=5.7m/s Type=DFM17 ser=[BC]22042582 Details on http://radiosondy.info
W4DEX-14D220425822022-12-05 23:42:2736.0172-79.379310917611228Clb=3.4m/s Type=DFM17 ser=[BC]22042582 Details on http://radiosondy.info
W4DEX-14D220425822022-12-05 23:42:2136.0192-79.387110617611154Clb=6.0m/s Type=DFM17 ser=[BC]22042582 Details on http://radiosondy.info
W4DEX-14D220425822022-12-05 23:42:0236.0212-79.394711017211083Clb=4.2m/s Type=DFM17 ser=[BC]22042582 Details on http://radiosondy.info
W4DEX-14D220425822022-12-05 23:41:4036.023-79.402410716911013Clb=3.6m/s Type=DFM17 ser=[BC]22042582 Details on http://radiosondy.info
W4DEX-14D220425822022-12-05 23:41:1736.0247-79.409910616910950Clb=4.9m/s Type=DFM17 ser=[BC]22042582 Details on http://radiosondy.info
W4DEX-14D220425822022-12-05 23:40:5636.0264-79.417410516710880Clb=4.5m/s Type=DFM17 ser=[BC]22042582 Details on http://radiosondy.info
W4DEX-14D220425822022-12-05 23:40:3236.0281-79.424810216910808Clb=5.6m/s Type=DFM17 ser=[BC]22042582 Details on http://radiosondy.info
W4DEX-14D220425822022-12-05 23:40:1136.0297-79.432310516710740Clb=4.6m/s Type=DFM17 ser=[BC]22042582 Details on http://radiosondy.info
W4DEX-14D220425822022-12-05 23:39:5436.0316-79.439610516910674Clb=5.0m/s Type=DFM17 ser=[BC]22042582 Details on http://radiosondy.info
W4DEX-14D220425822022-12-05 23:39:3936.0333-79.447110516910610Clb=4.5m/s Type=DFM17 ser=[BC]22042582 Details on http://radiosondy.info
W4DEX-14D220425822022-12-05 23:39:2436.0349-79.454710417410546Clb=5.5m/s Type=DFM17 ser=[BC]22042582 Details on http://radiosondy.info
W4DEX-14D220425822022-12-05 23:39:0936.0367-79.462410817010485Clb=3.7m/s Type=DFM17 ser=[BC]22042582 Details on http://radiosondy.info
W4DEX-14D220425822022-12-05 23:38:5436.0383-79.4710516510424Clb=4.0m/s Type=DFM17 ser=[BC]22042582 Details on http://radiosondy.info
W4DEX-14D220425822022-12-05 23:38:3936.0398-79.477310516910348Clb=7.4m/s Type=DFM17 ser=[BC]22042582 Details on http://radiosondy.info
W4DEX-14D220425822022-12-05 23:38:2436.0413-79.484910116510267Clb=4.6m/s Type=DFM17 ser=[BC]22042582 Details on http://radiosondy.info
W4DEX-14D220425822022-12-05 23:38:0936.0425-79.492410116510207Clb=4.4m/s Type=DFM17 ser=[BC]22042582 Details on http://radiosondy.info
W4DEX-14D220425822022-12-05 23:37:5936.0435-79.49999616910142Clb=5.3m/s Type=DFM17 ser=[BC]22042582 Details on http://radiosondy.info
W4DEX-14D220425822022-12-05 23:37:5836.0445-79.50769916510075Clb=4.5m/s Type=DFM17 ser=[BC]22042582 Details on http://radiosondy.info
W4DEX-14D220425822022-12-05 23:37:5636.0455-79.515110016910002Clb=4.8m/s Type=DFM17 ser=[BC]22042582 Details on http://radiosondy.info
W4DEX-14D220425822022-12-05 23:37:4136.0463-79.5228981659932Clb=6.4m/s Type=DFM17 ser=[BC]22042582 Details on http://radiosondy.info
W4DEX-14D220425822022-12-05 23:37:1836.0474-79.5303961699856Clb=4.6m/s Type=DFM17 ser=[BC]22042582 Details on http://radiosondy.info
W4DEX-14D220425822022-12-05 23:36:5536.0483-79.5381011659781Clb=5.1m/s Type=DFM17 ser=[BC]22042582 Details on http://radiosondy.info
W4DEX-14D220425822022-12-05 23:36:3336.0493-79.5455981699709Clb=5.0m/s Type=DFM17 ser=[BC]22042582 Details on http://radiosondy.info
W4DEX-14D220425822022-12-05 23:36:1136.0502-79.55311021699638Clb=5.5m/s Type=DFM17 ser=[BC]22042582 Details on http://radiosondy.info
W4DEX-14D220425822022-12-05 23:35:5436.0512-79.56081001679567Clb=5.5m/s Type=DFM17 ser=[BC]22042582 Details on http://radiosondy.info
W4DEX-14D220425822022-12-05 23:35:3936.0522-79.56841011699500Clb=5.4m/s Type=DFM17 ser=[BC]22042582 Details on http://radiosondy.info
W4DEX-14D220425822022-12-05 23:35:2436.0531-79.5761941659432Clb=3.1m/s Type=DFM17 ser=[BC]22042582 Details on http://radiosondy.info
W4DEX-14D220425822022-12-05 23:35:0936.0541-79.5837991699351Clb=4.4m/s Type=DFM17 ser=[BC]22042582 Details on http://radiosondy.info
W4DEX-14D220425822022-12-05 23:34:5836.055-79.5913991699283Clb=3.9m/s Type=DFM17 ser=[BC]22042582 Details on http://radiosondy.info
W4DEX-14D220425822022-12-05 23:34:3936.0558-79.599931549213Clb=7.1m/s Type=DFM17 ser=[BC]22042582 Details on http://radiosondy.info
W4DEX-14D220425822022-12-05 23:34:2436.0567-79.60591041639118Clb=5.8m/s Type=DFM17 ser=[BC]22042582 Details on http://radiosondy.info
W4DEX-14D220425822022-12-05 23:34:0936.0573-79.6134931569020Clb=5.8m/s Type=DFM17 ser=[BC]22042582 Details on http://radiosondy.info
W4DEX-14D220425822022-12-05 23:33:5536.0579-79.6206981548940Clb=5.2m/s Type=DFM17 ser=[BC]22042582 Details on http://radiosondy.info
W4DEX-14D220425822022-12-05 23:33:3936.0585-79.6276931508875Clb=4.3m/s Type=DFM17 ser=[BC]22042582 Details on http://radiosondy.info
W4DEX-14D220425822022-12-05 23:33:3736.0592-79.6345981528808Clb=5.3m/s Type=DFM17 ser=[BC]22042582 Details on http://radiosondy.info
W4DEX-14D220425822022-12-05 23:33:2936.0598-79.6415941448745Clb=5.6m/s Type=DFM17 ser=[BC]22042582 Details on http://radiosondy.info
W4DEX-14D220425822022-12-05 23:33:1436.0604-79.64811041438674Clb=4.7m/s Type=DFM17 ser=[BC]22042582 Details on http://radiosondy.info
W4DEX-14D220425822022-12-05 23:32:5136.0613-79.6545981418596Clb=5.7m/s Type=DFM17 ser=[BC]22042582 Details on http://radiosondy.info
W4DEX-14D220425822022-12-05 23:32:3036.0619-79.6609941418523Clb=4.2m/s Type=DFM17 ser=[BC]22042582 Details on http://radiosondy.info
W4DEX-14D220425822022-12-05 23:32:1036.0625-79.66751021438457Clb=4.3m/s Type=DFM17 ser=[BC]22042582 Details on http://radiosondy.info
W4DEX-14D220425822022-12-05 23:31:5436.063-79.674971398380Clb=4.5m/s Type=DFM17 ser=[BC]22042582 Details on http://radiosondy.info
W4DEX-14D220425822022-12-05 23:31:3936.0637-79.6804941418312Clb=5.4m/s Type=DFM17 ser=[BC]22042582 Details on http://radiosondy.info
W4DEX-14D220425822022-12-05 23:31:2436.0644-79.6867961378245Clb=4.9m/s Type=DFM17 ser=[BC]22042582 Details on http://radiosondy.info
W4DEX-14D220425822022-12-05 23:31:0936.0651-79.693971398175Clb=4.8m/s Type=DFM17 ser=[BC]22042582 Details on http://radiosondy.info
W4DEX-14D220425822022-12-05 23:30:5436.0659-79.6993971418108Clb=4.0m/s Type=DFM17 ser=[BC]22042582 Details on http://radiosondy.info
W4DEX-14D220425822022-12-05 23:30:3936.0668-79.70571031358039Clb=3.9m/s Type=DFM17 ser=[BC]22042582 Details on http://radiosondy.info
W4DEX-14D220425822022-12-05 23:30:2436.0677-79.71191081317967Clb=5.6m/s Type=DFM17 ser=[BC]22042582 Details on http://radiosondy.info
W4DEX-14D220425822022-12-05 23:30:0936.069-79.71771021287892Clb=4.8m/s Type=DFM17 ser=[BC]22042582 Details on http://radiosondy.info
W4DEX-14D220425822022-12-05 23:29:5436.0702-79.72341081287823Clb=5.6m/s Type=DFM17 ser=[BC]22042582 Details on http://radiosondy.info
W4DEX-14D220425822022-12-05 23:29:3936.0716-79.72911021267755Clb=4.8m/s Type=DFM17 ser=[BC]22042582 Details on http://radiosondy.info
W4DEX-14D220425822022-12-05 23:29:2436.0731-79.73461161197683Clb=2.5m/s Type=DFM17 ser=[BC]22042582 Details on http://radiosondy.info
W4DEX-14D220425822022-12-05 23:29:1536.0745-79.73971061097600Clb=5.5m/s Type=DFM17 ser=[BC]22042582 Details on http://radiosondy.info
W4DEX-14D220425822022-12-05 23:29:0636.0759-79.74451151097522Clb=5.0m/s Type=DFM17 ser=[BC]22042582 Details on http://radiosondy.info
W4DEX-14D220425822022-12-05 23:28:4936.0773-79.74931171067449Clb=6.4m/s Type=DFM17 ser=[BC]22042582 Details on http://radiosondy.info
W4DEX-14D220425822022-12-05 23:28:3036.079-79.75371191077371Clb=5.3m/s Type=DFM17 ser=[BC]22042582 Details on http://radiosondy.info
W4DEX-14D220425822022-12-05 23:28:1036.0807-79.75821171067298Clb=3.8m/s Type=DFM17 ser=[BC]22042582 Details on http://radiosondy.info
W4DEX-14D220425822022-12-05 23:27:5436.0825-79.76261201117227Clb=4.1m/s Type=DFM17 ser=[BC]22042582 Details on http://radiosondy.info
W4DEX-14D220425822022-12-05 23:27:3936.0845-79.767121967156Clb=5.8m/s Type=DFM17 ser=[BC]22042582 Details on http://radiosondy.info
W4DEX-14D220425822022-12-05 23:27:2436.0864-79.7708131947073Clb=4.0m/s Type=DFM17 ser=[BC]22042582 Details on http://radiosondy.info
W4DEX-14D220425822022-12-05 23:27:0936.0881-79.7746118856997Clb=7.1m/s Type=DFM17 ser=[BC]22042582 Details on http://radiosondy.info
W4DEX-14D220425822022-12-05 23:26:5436.0898-79.7779112806919Clb=4.1m/s Type=DFM17 ser=[BC]22042582 Details on http://radiosondy.info
W4DEX-14D220425822022-12-05 23:26:3936.0913-79.781119746843Clb=4.7m/s Type=DFM17 ser=[BC]22042582 Details on http://radiosondy.info
W4DEX-14D220425822022-12-05 23:26:2436.0929-79.7838129786772Clb=5.4m/s Type=DFM17 ser=[BC]22042582 Details on http://radiosondy.info
W4DEX-14D220425822022-12-05 23:26:0936.0947-79.7868128766701Clb=5.7m/s Type=DFM17 ser=[BC]22042582 Details on http://radiosondy.info
W4DEX-14D220425822022-12-05 23:25:5436.0962-79.7896133766623Clb=4.7m/s Type=DFM17 ser=[BC]22042582 Details on http://radiosondy.info
W4DEX-14D220425822022-12-05 23:25:3936.0979-79.7924132726552Clb=4.7m/s Type=DFM17 ser=[BC]22042582 Details on http://radiosondy.info
W4DEX-14D220425822022-12-05 23:25:2436.0994-79.7951121726488Clb=4.7m/s Type=DFM17 ser=[BC]22042582 Details on http://radiosondy.info
W4DEX-14D220425822022-12-05 23:25:0936.101-79.7978118766420Clb=4.5m/s Type=DFM17 ser=[BC]22042582 Details on http://radiosondy.info
W4DEX-14D220425822022-12-05 23:24:5936.1026-79.8007115786347Clb=4.8m/s Type=DFM17 ser=[BC]22042582 Details on http://radiosondy.info
W4DEX-14D220425822022-12-05 23:24:4536.1043-79.8036120786279Clb=4.5m/s Type=DFM17 ser=[BC]22042582 Details on http://radiosondy.info
W4DEX-14D220425822022-12-05 23:24:2736.1057-79.8067123746211Clb=5.1m/s Type=DFM17 ser=[BC]22042582 Details on http://radiosondy.info
W4DEX-14D220425822022-12-05 23:24:0936.1072-79.8096124876127Clb=5.4m/s Type=DFM17 ser=[BC]22042582 Details on http://radiosondy.info
W4DEX-14D220425822022-12-05 23:23:5436.109-79.813115816053Clb=3.8m/s Type=DFM17 ser=[BC]22042582 Details on http://radiosondy.info
W4DEX-14D220425822022-12-05 23:23:3936.1104-79.8163112835973Clb=3.7m/s Type=DFM17 ser=[BC]22042582 Details on http://radiosondy.info
W4DEX-14D220425822022-12-05 23:23:0936.1136-79.8226127765824Clb=4.5m/s Type=DFM17 ser=[BC]22042582 Details on http://radiosondy.info
W4DEX-14D220425822022-12-05 23:22:5436.1152-79.8254116805754Clb=5.7m/s Type=DFM17 ser=[BC]22042582 Details on http://radiosondy.info
W4DEX-14D220425822022-12-05 23:22:3936.1167-79.8286124835675Clb=3.7m/s Type=DFM17 ser=[BC]22042582 Details on http://radiosondy.info
W4DEX-14D220425822022-12-05 23:22:2436.1182-79.832123835606Clb=2.9m/s Type=DFM17 ser=[BC]22042582 Details on http://radiosondy.info
W4DEX-14D220425822022-12-05 23:22:0936.1199-79.8352115785526Clb=6.3m/s Type=DFM17 ser=[BC]22042582 Details on http://radiosondy.info
W4DEX-14D220425822022-12-05 23:21:5436.1213-79.8384122695443Clb=4.6m/s Type=DFM17 ser=[BC]22042582 Details on http://radiosondy.info
W4DEX-14D220425822022-12-05 23:21:3936.1223-79.8412115675370Clb=4.5m/s Type=DFM17 ser=[BC]22042582 Details on http://radiosondy.info
W4DEX-14D220425822022-12-05 23:21:2436.1233-79.844102695281Clb=5.1m/s Type=DFM17 ser=[BC]22042582 Details on http://radiosondy.info
W4DEX-14D220425822022-12-05 23:21:0936.1239-79.847199725211Clb=4.0m/s Type=DFM17 ser=[BC]22042582 Details on http://radiosondy.info
W4DEX-14D220425822022-12-05 23:20:5536.1243-79.850498655147Clb=3.0m/s Type=DFM17 ser=[BC]22042582 Details on http://radiosondy.info
W4DEX-14D220425822022-12-05 23:20:4136.1249-79.853386695075Clb=7.5m/s Type=DFM17 ser=[BC]22042582 Details on http://radiosondy.info
W4DEX-14D220425822022-12-05 23:20:2436.1253-79.856499654993Clb=4.2m/s Type=DFM17 ser=[BC]22042582 Details on http://radiosondy.info
W4DEX-14D220425822022-12-05 23:20:0936.1254-79.859386674921Clb=4.0m/s Type=DFM17 ser=[BC]22042582 Details on http://radiosondy.info
W4DEX-14D220425822022-12-05 23:19:5436.1256-79.862484694846Clb=3.7m/s Type=DFM17 ser=[BC]22042582 Details on http://radiosondy.info
W4DEX-14D220425822022-12-05 23:19:3936.1259-79.8655104654773Clb=4.6m/s Type=DFM17 ser=[BC]22042582 Details on http://radiosondy.info
W4DEX-14D220425822022-12-05 23:19:2436.1263-79.868495574694Clb=6.6m/s Type=DFM17 ser=[BC]22042582 Details on http://radiosondy.info
W4DEX-14D220425822022-12-05 23:19:0936.1267-79.8709106564626Clb=4.3m/s Type=DFM17 ser=[BC]22042582 Details on http://radiosondy.info
W4DEX-14D220425822022-12-05 23:18:5436.127-79.873492504549Clb=4.3m/s Type=DFM17 ser=[BC]22042582 Details on http://radiosondy.info
W4DEX-14D220425822022-12-05 23:18:3936.1275-79.875787524475Clb=3.5m/s Type=DFM17 ser=[BC]22042582 Details on http://radiosondy.info
W4DEX-14D220425822022-12-05 23:18:2436.1279-79.87899524390Clb=4.7m/s Type=DFM17 ser=[BC]22042582 Details on http://radiosondy.info
W4DEX-14D220425822022-12-05 23:18:0936.1283-79.8803112564331Clb=2.6m/s Type=DFM17 ser=[BC]22042582 Details on http://radiosondy.info
W4DEX-14D220425822022-12-05 23:17:5436.1286-79.882889504243Clb=5.6m/s Type=DFM17 ser=[BC]22042582 Details on http://radiosondy.info
W4DEX-14D220425822022-12-05 23:17:3936.1288-79.8851108484163Clb=5.5m/s Type=DFM17 ser=[BC]22042582 Details on http://radiosondy.info
W4DEX-14D220425822022-12-05 23:17:2436.1291-79.8872108394077Clb=6.7m/s Type=DFM17 ser=[BC]22042582 Details on http://radiosondy.info
W4DEX-14D220425822022-12-05 23:17:0936.1293-79.888991433995Clb=6.0m/s Type=DFM17 ser=[BC]22042582 Details on http://radiosondy.info
W4DEX-14D220425822022-12-05 23:16:5436.1298-79.890890353909Clb=6.0m/s Type=DFM17 ser=[BC]22042582 Details on http://radiosondy.info
W4DEX-14D220425822022-12-05 23:16:3936.13-79.892290373828Clb=6.0m/s Type=DFM17 ser=[BC]22042582 Details on http://radiosondy.info
W4DEX-14D220425822022-12-05 23:16:2436.1304-79.893992413737Clb=6.2m/s Type=DFM17 ser=[BC]22042582 Details on http://radiosondy.info
W4DEX-14D220425822022-12-05 23:16:0936.1305-79.895691303639Clb=6.5m/s Type=DFM17 ser=[BC]22042582 Details on http://radiosondy.info
W4DEX-14D220425822022-12-05 23:15:5436.1307-79.896861333549Clb=7.3m/s Type=DFM17 ser=[BC]22042582 Details on http://radiosondy.info
W4DEX-14D220425822022-12-05 23:15:3936.1305-79.898388413463Clb=5.2m/s Type=DFM17 ser=[BC]22042582 Details on http://radiosondy.info
W4DEX-14D220425822022-12-05 23:15:2436.13-79.962413379Clb=5.0m/s Type=DFM17 ser=[BC]22042582 Details on http://radiosondy.info
W4DEX-14D220425822022-12-05 23:15:0936.1296-79.901750393297Clb=4.7m/s Type=DFM17 ser=[BC]22042582 Details on http://radiosondy.info
W4DEX-14D220425822022-12-05 23:14:5436.1292-79.903382503219Clb=4.6m/s Type=DFM17 ser=[BC]22042582 Details on http://radiosondy.info
W4DEX-14D220425822022-12-05 23:14:3936.1287-79.905579483144Clb=5.0m/s Type=DFM17 ser=[BC]22042582 Details on http://radiosondy.info
W4DEX-14D220425822022-12-05 23:14:2436.1283-79.907689633064Clb=6.6m/s Type=DFM17 ser=[BC]22042582 Details on http://radiosondy.info
W4DEX-14D220425822022-12-05 23:14:0936.1279-79.910490592985Clb=4.6m/s Type=DFM17 ser=[BC]22042582 Details on http://radiosondy.info
W4DEX-14D220425822022-12-05 23:13:5436.1274-79.91362522897Clb=4.0m/s Type=DFM17 ser=[BC]22042582 Details on http://radiosondy.info
W4DEX-14D220425822022-12-05 23:13:3936.127-79.915373482817Clb=3.9m/s Type=DFM17 ser=[BC]22042582 Details on http://radiosondy.info
W4DEX-14D220425822022-12-05 23:13:2436.1268-79.917595482739Clb=5.1m/s Type=DFM17 ser=[BC]22042582 Details on http://radiosondy.info
W4DEX-14D220425822022-12-05 23:13:0936.1262-79.919656442650Clb=6.6m/s Type=DFM17 ser=[BC]22042582 Details on http://radiosondy.info
W4DEX-14D220425822022-12-05 23:12:5436.1254-79.921364522573Clb=7.4m/s Type=DFM17 ser=[BC]22042582 Details on http://radiosondy.info
W4DEX-14D220425822022-12-05 23:12:3936.1246-79.923541502498Clb=6.7m/s Type=DFM17 ser=[BC]22042582 Details on http://radiosondy.info
W4DEX-14D220425822022-12-05 23:12:2436.1234-79.925230462416Clb=5.2m/s Type=DFM17 ser=[BC]22042582 Details on http://radiosondy.info
W4DEX-14D220425822022-12-05 23:12:0936.1223-79.926847392334Clb=6.2m/s Type=DFM17 ser=[BC]22042582 Details on http://radiosondy.info
W4DEX-14D220425822022-12-05 23:11:5436.1213-79.928137482256Clb=4.8m/s Type=DFM17 ser=[BC]22042582 Details on http://radiosondy.info
W4DEX-14D220425822022-12-05 23:11:3936.12-79.929557392173Clb=4.9m/s Type=DFM17 ser=[BC]22042582 Details on http://radiosondy.info
W4DEX-14D220425822022-12-05 23:11:2436.119-79.930837432095Clb=5.8m/s Type=DFM17 ser=[BC]22042582 Details on http://radiosondy.info
W4DEX-14D220425822022-12-05 23:11:0936.1181-79.932361412011Clb=4.1m/s Type=DFM17 ser=[BC]22042582 Details on http://radiosondy.info
W4DEX-14D220425822022-12-05 23:10:5436.1171-79.933664411932Clb=4.4m/s Type=DFM17 ser=[BC]22042582 Details on http://radiosondy.info
W4DEX-14D220425822022-12-05 23:10:3936.1161-79.93523431847Clb=4.0m/s Type=DFM17 ser=[BC]22042582 Details on http://radiosondy.info
W4DEX-14D220425822022-12-05 23:10:2436.1147-79.935840431759Clb=6.4m/s Type=DFM17 ser=[BC]22042582 Details on http://radiosondy.info
W4DEX-14D220425822022-12-05 23:10:0936.1134-79.936849431676Clb=6.3m/s Type=DFM17 ser=[BC]22042582 Details on http://radiosondy.info
W4DEX-14D220425822022-12-05 23:09:5436.1121-79.937928441606Clb=5.4m/s Type=DFM17 ser=[BC]22042582 Details on http://radiosondy.info
W4DEX-14D220425822022-12-05 23:09:3936.1106-79.938651411516Clb=5.0m/s Type=DFM17 ser=[BC]22042582 Details on http://radiosondy.info
W4DEX-14D220425822022-12-05 23:09:2436.1094-79.939741441448Clb=5.0m/s Type=DFM17 ser=[BC]22042582 Details on http://radiosondy.info
W4DEX-14D220425822022-12-05 23:09:0936.1083-79.941152411362Clb=4.9m/s Type=DFM17 ser=[BC]22042582 Details on http://radiosondy.info
W4DEX-14D220425822022-12-05 23:08:5436.1072-79.942321411271Clb=4.5m/s Type=DFM17 ser=[BC]22042582 Details on http://radiosondy.info
W4DEX-14D220425822022-12-05 23:08:3936.106-79.943242311191Clb=4.8m/s Type=DFM17 ser=[BC]22042582 Details on http://radiosondy.info
W4DEX-14D220425822022-12-05 23:08:2436.105-79.943847331104Clb=6.2m/s Type=DFM17 ser=[BC]22042582 Details on http://radiosondy.info
W4DEX-14D220425822022-12-05 23:08:0936.1039-79.944219301016Clb=5.3m/s Type=DFM17 ser=[BC]22042582 Details on http://radiosondy.info
W4DEX-14D220425822022-12-05 23:07:5436.1029-79.94452926938Clb=6.4m/s Type=DFM17 ser=[BC]22042582 Details on http://radiosondy.info
W4DEX-14D220425822022-12-05 23:07:3936.102-79.94453320850Clb=5.6m/s Type=DFM17 ser=[BC]22042582 Details on http://radiosondy.info
W4DEX-14D220425822022-12-05 23:07:2436.1013-79.94443015769Clb=5.1m/s Type=DFM Details on http://radiosondy.info
W4DEX-14D220425822022-12-05 23:07:0936.1009-79.94431119689Clb=6.6m/s Type=DFM Details on http://radiosondy.info
W4DEX-14D220425822022-12-05 23:06:5436.1004-79.94432022598Clb=7.7m/s Type=DFM Details on http://radiosondy.info